createdAt,value
2022-08-09T00:04:34.613Z,2.70
2022-08-09T00:07:07.882Z,2.60
2022-08-09T00:09:39.653Z,2.60
2022-08-09T00:12:15.592Z,3.30
2022-08-09T00:14:56.618Z,2.80
2022-08-09T00:18:10.893Z,2.50
2022-08-09T00:20:15.290Z,2.40
2022-08-09T00:22:47.299Z,2.80
2022-08-09T00:25:23.600Z,2.50
2022-08-09T00:28:01.241Z,2.60
2022-08-09T00:30:33.993Z,2.50
2022-08-09T00:33:02.066Z,2.50
2022-08-09T00:35:42.859Z,2.30
2022-08-09T00:38:12.997Z,2.60
2022-08-09T00:40:52.440Z,2.50
2022-08-09T00:44:16.063Z,2.20
2022-08-09T00:46:14.606Z,2.00
2022-08-09T00:49:00.157Z,2.40
2022-08-09T00:51:33.785Z,2.60
2022-08-09T00:54:11.782Z,2.70
2022-08-09T00:56:40.455Z,2.40
2022-08-09T00:59:10.822Z,2.20
2022-08-09T01:01:44.764Z,2.70
2022-08-09T01:04:20.182Z,2.40
2022-08-09T01:07:14.038Z,2.20
2022-08-09T01:09:55.552Z,2.20
2022-08-09T01:12:30.205Z,2.40
2022-08-09T01:15:05.845Z,2.50
2022-08-09T01:18:05.081Z,2.40
2022-08-09T01:20:47.478Z,2.60
2022-08-09T01:24:03.222Z,2.40
2022-08-09T01:26:53.636Z,2.30
2022-08-09T01:29:56.015Z,2.90
2022-08-09T01:32:46.221Z,2.60
2022-08-09T01:35:38.564Z,2.90
2022-08-09T01:38:15.009Z,2.30
2022-08-09T01:41:05.229Z,2.40
2022-08-09T01:43:41.977Z,2.40
2022-08-09T01:46:26.900Z,2.20
2022-08-09T01:49:09.416Z,2.40
2022-08-09T01:51:54.368Z,2.30
2022-08-09T01:54:32.921Z,2.70
2022-08-09T01:59:41.051Z,2.80
2022-08-09T02:02:30.111Z,2.60
2022-08-09T02:05:15.752Z,3.00
2022-08-09T02:08:39.297Z,3.10
2022-08-09T02:10:59.419Z,2.80
2022-08-09T02:13:37.419Z,2.90
2022-08-09T02:16:11.724Z,2.80
2022-08-09T02:18:42.849Z,2.70
2022-08-09T02:21:22.095Z,2.60
2022-08-09T02:23:54.998Z,2.50
2022-08-09T02:26:28.204Z,2.80
2022-08-09T02:29:00.759Z,3.90
2022-08-09T02:31:36.247Z,4.00
2022-08-09T02:34:13.788Z,4.10
2022-08-09T02:37:03.820Z,4.40
2022-08-09T02:39:44.517Z,3.10
2022-08-09T02:42:24.905Z,3.40
2022-08-09T02:45:00.938Z,3.20
2022-08-09T02:47:33.732Z,3.50
2022-08-09T02:50:24.380Z,3.10
2022-08-09T02:53:00.289Z,3.00
2022-08-09T02:55:46.802Z,2.60
2022-08-09T02:58:35.808Z,3.10
2022-08-09T03:01:08.004Z,3.00
2022-08-09T03:04:16.676Z,3.30
2022-08-09T03:06:29.608Z,3.30
2022-08-09T03:09:00.396Z,3.80
2022-08-09T03:12:04.329Z,3.60
2022-08-09T03:14:18.889Z,3.50
2022-08-09T03:16:50.166Z,3.70
2022-08-09T03:19:59.311Z,3.20
2022-08-09T03:22:12.181Z,4.10
2022-08-09T03:24:52.402Z,4.10
2022-08-09T03:27:44.709Z,3.30
2022-08-09T03:30:30.015Z,3.40
2022-08-09T03:33:17.701Z,3.90
2022-08-09T03:36:13.484Z,3.70
2022-08-09T03:38:42.705Z,3.20
2022-08-09T03:41:18.456Z,3.00
2022-08-09T03:44:02.981Z,3.30
2022-08-09T03:46:36.773Z,3.70
2022-08-09T03:49:08.250Z,3.50
2022-08-09T03:51:56.093Z,3.40
2022-08-09T03:54:31.721Z,3.20
2022-08-09T03:57:04.322Z,3.70
2022-08-09T03:59:54.295Z,4.70
2022-08-09T04:02:29.551Z,4.90
2022-08-09T04:05:01.375Z,3.90
2022-08-09T04:07:53.581Z,3.90
2022-08-09T04:10:29.536Z,3.60
2022-08-09T04:13:03.997Z,3.70
2022-08-09T04:16:18.136Z,3.70
2022-08-09T04:18:21.916Z,5.90
2022-08-09T04:20:51.658Z,7.80
2022-08-09T04:25:55.279Z,8.60
2022-08-09T04:28:30.751Z,7.40
2022-08-09T04:31:09.442Z,7.00
2022-08-09T04:33:52.528Z,7.20
2022-08-09T04:36:28.337Z,6.70
2022-08-09T04:39:01.877Z,6.60
2022-08-09T04:41:33.765Z,6.50
2022-08-09T04:44:14.738Z,5.60
2022-08-09T04:46:58.987Z,5.60
2022-08-09T04:49:53.631Z,4.90
2022-08-09T04:52:28.720Z,5.50
2022-08-09T04:55:00.338Z,5.20
2022-08-09T04:57:59.241Z,4.70
2022-08-09T05:00:18.460Z,5.10
2022-08-09T05:02:48.635Z,5.10
2022-08-09T05:05:32.052Z,3.90
2022-08-09T05:08:13.876Z,4.30
2022-08-09T05:10:43.261Z,4.30
2022-08-09T05:13:14.218Z,4.30
2022-08-09T05:15:48.171Z,3.30
2022-08-09T05:18:38.123Z,4.40
2022-08-09T05:21:13.457Z,4.30
2022-08-09T05:24:00.202Z,8.00
2022-08-09T05:26:37.081Z,7.00
2022-08-09T05:29:31.433Z,6.40
2022-08-09T05:32:02.449Z,7.30
2022-08-09T05:34:32.666Z,5.90
2022-08-09T05:37:06.841Z,3.90
2022-08-09T05:39:42.617Z,3.60
2022-08-09T05:42:17.427Z,3.70
2022-08-09T05:44:52.340Z,3.40
2022-08-09T05:47:25.097Z,3.30
2022-08-09T05:50:25.804Z,3.00
2022-08-09T05:52:52.177Z,3.60
2022-08-09T05:55:24.241Z,3.40
2022-08-09T05:57:57.652Z,3.70
2022-08-09T06:00:33.071Z,3.30
2022-08-09T06:03:03.785Z,3.30
2022-08-09T06:05:57.662Z,5.50
2022-08-09T06:08:26.936Z,5.60
2022-08-09T06:13:28.300Z,4.30
2022-08-09T06:15:57.164Z,4.20
2022-08-09T06:18:28.529Z,4.10
2022-08-09T06:20:58.443Z,3.90
2022-08-09T06:23:55.785Z,3.10
2022-08-09T06:26:20.482Z,3.70
2022-08-09T06:29:00.425Z,3.70
2022-08-09T06:31:40.008Z,3.90
2022-08-09T06:34:22.772Z,3.50
2022-08-09T06:39:48.562Z,3.40
2022-08-09T06:42:24.904Z,3.60
2022-08-09T06:45:00.262Z,3.00
2022-08-09T06:47:40.078Z,3.30
2022-08-09T06:50:14.498Z,2.80
2022-08-09T06:52:48.830Z,2.70
2022-08-09T06:55:22.278Z,3.20
2022-08-09T06:58:02.795Z,2.80
2022-08-09T07:00:50.576Z,2.90
2022-08-09T07:03:28.336Z,2.90
2022-08-09T07:06:04.736Z,2.90
2022-08-09T07:08:37.166Z,3.10
2022-08-09T07:11:12.435Z,2.70
2022-08-09T07:14:04.267Z,2.60
2022-08-09T07:16:42.655Z,2.30
2022-08-09T07:19:18.740Z,2.40
2022-08-09T07:21:57.609Z,2.60
2022-08-09T07:24:32.129Z,2.40
2022-08-09T07:27:27.146Z,2.40
2022-08-09T07:30:00.434Z,2.60
2022-08-09T07:32:32.044Z,2.60
2022-08-09T07:35:02.661Z,2.40
2022-08-09T07:37:43.566Z,2.40
2022-08-09T07:40:17.247Z,2.60
2022-08-09T07:42:56.977Z,2.50
2022-08-09T07:45:37.559Z,2.70
2022-08-09T07:48:07.999Z,2.40
2022-08-09T07:51:03.170Z,3.00
2022-08-09T07:54:05.203Z,2.10
2022-08-09T07:56:30.756Z,2.10
2022-08-09T07:59:00.112Z,2.20
2022-08-09T08:01:33.125Z,2.20
2022-08-09T08:04:03.338Z,2.30
2022-08-09T08:06:32.679Z,2.80
2022-08-09T08:09:07.564Z,2.20
2022-08-09T08:12:10.918Z,2.20
2022-08-09T08:14:35.255Z,2.10
2022-08-09T08:17:09.098Z,2.00
2022-08-09T08:19:40.875Z,2.10
2022-08-09T08:22:12.608Z,1.90
2022-08-09T08:24:42.293Z,1.90
2022-08-09T08:27:16.911Z,1.80
2022-08-09T08:29:49.973Z,1.50
2022-08-09T08:32:47.681Z,2.10
2022-08-09T08:35:08.617Z,1.90
2022-08-09T08:37:41.726Z,1.80
2022-08-09T08:40:25.596Z,1.70
2022-08-09T08:42:58.776Z,1.90
2022-08-09T08:45:37.433Z,1.70
2022-08-09T08:48:06.366Z,1.70
2022-08-09T08:50:41.609Z,2.00
2022-08-09T08:53:21.750Z,2.00
2022-08-09T08:55:52.593Z,1.70
2022-08-09T08:58:27.219Z,1.80
2022-08-09T09:00:57.957Z,2.20
2022-08-09T09:03:37.928Z,2.50
2022-08-09T09:06:10.291Z,2.00
2022-08-09T09:08:42.472Z,2.10
2022-08-09T09:11:17.164Z,2.30
2022-08-09T09:13:57.556Z,2.20
2022-08-09T09:16:34.408Z,2.10
2022-08-09T09:22:00.690Z,2.20
2022-08-09T09:24:34.651Z,1.90
2022-08-09T09:27:04.259Z,1.80
2022-08-09T09:30:09.324Z,2.00
2022-08-09T09:32:35.000Z,1.70
2022-08-09T09:35:10.018Z,1.90
2022-08-09T09:37:40.204Z,1.70
2022-08-09T09:40:11.793Z,1.70
2022-08-09T09:42:46.301Z,1.50
2022-08-09T09:45:25.848Z,1.50
2022-08-09T09:48:03.274Z,1.60
2022-08-09T09:50:49.568Z,1.60
2022-08-09T09:53:34.410Z,1.40
2022-08-09T09:56:19.781Z,1.30
2022-08-09T09:59:01.779Z,1.50
2022-08-09T10:01:38.049Z,1.40
2022-08-09T10:07:03.500Z,1.30
2022-08-09T10:09:54.570Z,1.40
2022-08-09T10:12:28.440Z,1.70
2022-08-09T10:15:17.252Z,1.70
2022-08-09T10:17:56.674Z,1.50
2022-08-09T10:20:35.386Z,1.30
2022-08-09T10:23:20.316Z,1.50
2022-08-09T10:26:07.524Z,1.40
2022-08-09T10:28:40.606Z,1.90
2022-08-09T10:34:10.954Z,1.40
2022-08-09T10:36:57.561Z,1.50
2022-08-09T10:39:28.458Z,1.30
2022-08-09T10:41:57.934Z,1.50
2022-08-09T10:44:31.813Z,1.30
2022-08-09T10:48:12.343Z,1.50
2022-08-09T10:50:31.194Z,1.30
2022-08-09T10:53:28.008Z,1.60
2022-08-09T10:56:26.767Z,1.80
2022-08-09T10:58:57.130Z,1.50
2022-08-09T11:03:15.648Z,1.20
2022-08-09T11:04:32.856Z,1.40
2022-08-09T11:07:03.849Z,1.50
2022-08-09T11:09:38.379Z,1.70
2022-08-09T11:12:18.185Z,1.20
2022-08-09T11:17:27.408Z,1.30
2022-08-09T11:20:22.313Z,1.60
2022-08-09T11:22:55.527Z,1.60
2022-08-09T11:25:44.742Z,1.30
2022-08-09T11:28:54.053Z,1.50
2022-08-09T11:31:39.033Z,1.40
2022-08-09T11:34:23.151Z,1.50
2022-08-09T11:36:52.086Z,1.50
2022-08-09T11:39:20.211Z,1.50
2022-08-09T11:41:48.899Z,1.60
2022-08-09T11:44:17.633Z,1.60
2022-08-09T11:46:58.063Z,1.50
2022-08-09T11:50:54.223Z,1.60
2022-08-09T11:53:15.523Z,1.40
2022-08-09T11:56:02.498Z,1.50
2022-08-09T11:58:33.731Z,1.20
2022-08-09T12:01:08.772Z,1.30
2022-08-09T12:03:57.427Z,1.30
2022-08-09T12:06:32.372Z,1.40
2022-08-09T12:09:05.957Z,1.50
2022-08-09T12:12:02.626Z,1.90
2022-08-09T12:14:37.206Z,1.50
2022-08-09T12:17:34.448Z,1.70
2022-08-09T12:20:16.243Z,1.30
2022-08-09T12:22:50.546Z,1.40
2022-08-09T12:25:31.858Z,1.50
2022-08-09T12:29:12.642Z,1.40
2022-08-09T12:31:11.125Z,1.10
2022-08-09T12:34:01.146Z,1.60
2022-08-09T12:36:31.776Z,1.50
2022-08-09T12:39:01.071Z,1.40
2022-08-09T12:41:39.189Z,1.60
2022-08-09T12:44:12.758Z,1.50
2022-08-09T12:46:49.192Z,1.70
2022-08-09T12:49:19.153Z,1.40
2022-08-09T12:52:02.850Z,1.40
2022-08-09T12:56:11.133Z,1.30
2022-08-09T12:57:47.120Z,1.50
2022-08-09T13:00:25.156Z,1.50
2022-08-09T13:02:58.645Z,1.30
2022-08-09T13:05:50.702Z,1.60
2022-08-09T13:08:40.092Z,1.50
2022-08-09T13:11:13.130Z,1.60
2022-08-09T13:14:41.499Z,1.20
2022-08-09T13:17:15.871Z,1.60
2022-08-09T13:20:07.430Z,1.20
2022-08-09T13:23:01.700Z,1.60
2022-08-09T13:27:55.750Z,1.40
2022-08-09T13:30:50.252Z,1.60
2022-08-09T13:33:35.993Z,1.60
2022-08-09T13:36:39.606Z,1.80
2022-08-09T13:39:08.223Z,1.30
2022-08-09T13:41:59.096Z,1.30
2022-08-09T13:44:30.142Z,1.40
2022-08-09T13:47:26.616Z,1.30
2022-08-09T13:49:58.271Z,1.60
2022-08-09T13:52:31.195Z,1.50
2022-08-09T13:55:04.951Z,1.60
2022-08-09T13:57:41.068Z,1.80
2022-08-09T14:00:15.502Z,1.50
2022-08-09T14:03:04.411Z,2.20
2022-08-09T14:05:58.426Z,1.60
2022-08-09T14:08:23.261Z,1.80
2022-08-09T14:10:52.847Z,1.90
2022-08-09T14:14:14.746Z,1.90
2022-08-09T14:16:14.968Z,2.20
2022-08-09T14:18:49.656Z,2.10
2022-08-09T14:21:22.379Z,2.10
2022-08-09T14:23:55.372Z,1.80
2022-08-09T14:26:32.547Z,1.90
2022-08-09T14:29:25.674Z,2.00
2022-08-09T14:31:56.486Z,2.00
2022-08-09T14:34:27.552Z,1.80
2022-08-09T14:37:06.564Z,1.70
2022-08-09T14:39:46.775Z,1.80
2022-08-09T14:42:30.502Z,1.80
2022-08-09T14:46:57.173Z,1.70
2022-08-09T14:48:00.176Z,2.00
2022-08-09T14:50:33.034Z,1.80
2022-08-09T14:53:06.384Z,1.60
2022-08-09T14:55:47.754Z,1.70
2022-08-09T14:58:19.928Z,1.60
2022-08-09T15:00:51.074Z,1.70
2022-08-09T15:03:22.096Z,1.70
2022-08-09T15:05:54.838Z,1.60
2022-08-09T15:08:26.699Z,1.60
2022-08-09T15:11:00.643Z,1.60
2022-08-09T15:13:29.943Z,2.10
2022-08-09T15:16:17.586Z,1.90
2022-08-09T15:18:48.473Z,1.40
2022-08-09T15:22:00.490Z,1.60
2022-08-09T15:24:12.366Z,1.40
2022-08-09T15:26:46.026Z,2.00
2022-08-09T15:30:48.739Z,1.70
2022-08-09T15:32:04.699Z,1.50
2022-08-09T15:34:35.460Z,1.70
2022-08-09T15:37:24.318Z,1.70
2022-08-09T15:40:11.459Z,1.50
2022-08-09T15:42:42.648Z,1.80
2022-08-09T15:45:12.750Z,1.60
2022-08-09T15:47:51.877Z,1.80
2022-08-09T15:50:30.611Z,1.70
2022-08-09T15:53:06.115Z,1.60
2022-08-09T15:56:04.542Z,1.60
2022-08-09T15:58:26.862Z,1.60
2022-08-09T16:00:56.525Z,1.70
2022-08-09T16:03:29.622Z,1.90
2022-08-09T16:06:27.243Z,1.60
2022-08-09T16:08:59.138Z,1.60
2022-08-09T16:11:30.872Z,1.60
2022-08-09T16:14:07.114Z,2.00
2022-08-09T16:16:41.806Z,1.40
2022-08-09T16:19:13.899Z,1.40
2022-08-09T16:21:48.758Z,1.60
2022-08-09T16:24:33.577Z,2.20
2022-08-09T16:27:04.816Z,1.90
2022-08-09T16:29:37.442Z,1.60
2022-08-09T16:32:18.885Z,1.30
2022-08-09T16:34:58.349Z,1.50
2022-08-09T16:37:56.165Z,1.50
2022-08-09T16:40:20.469Z,1.60
2022-08-09T16:42:59.578Z,1.50
2022-08-09T16:45:30.428Z,1.50
2022-08-09T16:48:50.782Z,1.50
2022-08-09T16:50:49.900Z,1.50
2022-08-09T16:53:32.274Z,1.40
2022-08-09T16:56:09.342Z,1.50
2022-08-09T16:58:39.808Z,1.50
2022-08-09T17:01:19.498Z,1.50
2022-08-09T17:03:54.497Z,1.50
2022-08-09T17:06:29.209Z,1.30
2022-08-09T17:09:12.025Z,1.30
2022-08-09T17:11:48.170Z,1.40
2022-08-09T17:14:27.945Z,1.30
2022-08-09T17:16:59.833Z,1.40
2022-08-09T17:19:47.329Z,1.70
2022-08-09T17:22:24.188Z,1.50
2022-08-09T17:25:02.989Z,1.40
2022-08-09T17:27:34.519Z,1.30
2022-08-09T17:30:14.235Z,1.50
2022-08-09T17:32:44.443Z,1.50
2022-08-09T17:35:14.692Z,1.90
2022-08-09T17:38:02.525Z,2.10
2022-08-09T17:40:34.530Z,1.60
2022-08-09T17:43:32.362Z,2.40
2022-08-09T17:46:03.801Z,1.90
2022-08-09T17:48:38.993Z,1.80
2022-08-09T17:51:18.451Z,1.60
2022-08-09T17:53:52.323Z,1.60
2022-08-09T17:56:28.819Z,1.90
2022-08-09T17:59:03.260Z,1.90
2022-08-09T18:01:41.434Z,2.00
2022-08-09T18:04:20.368Z,1.80
2022-08-09T18:09:40.356Z,2.80
2022-08-09T18:12:17.759Z,2.40
2022-08-09T18:14:53.586Z,2.80
2022-08-09T18:17:27.075Z,2.50
2022-08-09T18:20:55.000Z,2.80
2022-08-09T18:23:05.652Z,2.50
2022-08-09T18:25:51.063Z,2.10
2022-08-09T18:30:39.810Z,2.30
2022-08-09T18:31:24.971Z,2.40
2022-08-09T18:34:00.615Z,2.60
2022-08-09T18:36:32.363Z,2.40
2022-08-09T18:39:04.182Z,3.00
2022-08-09T18:41:34.294Z,2.90
2022-08-09T18:44:12.971Z,3.00
2022-08-09T18:46:46.177Z,2.80
2022-08-09T18:49:19.463Z,2.70
2022-08-09T18:51:55.646Z,2.90
2022-08-09T18:54:28.500Z,3.10
2022-08-09T18:57:06.193Z,2.60
2022-08-09T18:59:37.304Z,2.60
2022-08-09T19:02:19.125Z,2.50
2022-08-09T19:04:47.431Z,3.10
2022-08-09T19:07:16.492Z,2.50
2022-08-09T19:12:36.622Z,3.10
2022-08-09T19:15:08.474Z,3.30
2022-08-09T19:17:54.750Z,3.30
2022-08-09T19:20:25.155Z,3.30
2022-08-09T19:22:54.491Z,3.50
2022-08-09T19:25:42.647Z,3.50
2022-08-09T19:28:13.046Z,3.10
2022-08-09T19:30:44.230Z,3.40
2022-08-09T19:33:19.702Z,4.90
2022-08-09T19:35:57.272Z,5.90
2022-08-09T19:38:27.842Z,5.10
2022-08-09T19:40:57.851Z,4.30
2022-08-09T19:44:02.057Z,3.60
2022-08-09T19:46:17.312Z,3.00
2022-08-09T19:50:08.109Z,3.30
2022-08-09T19:51:55.264Z,3.20
2022-08-09T19:54:25.695Z,2.90
2022-08-09T19:56:55.520Z,2.70
2022-08-09T19:59:57.300Z,2.30
2022-08-09T20:02:17.126Z,2.20
2022-08-09T20:05:02.251Z,2.20
2022-08-09T20:07:59.044Z,2.00
2022-08-09T20:10:34.391Z,2.60
2022-08-09T20:13:08.098Z,2.10
2022-08-09T20:16:34.581Z,2.10
2022-08-09T20:18:27.879Z,2.30
2022-08-09T20:20:57.417Z,2.40
2022-08-09T20:23:38.954Z,2.20
2022-08-09T20:26:10.076Z,2.00
2022-08-09T20:28:48.483Z,2.10
2022-08-09T20:31:18.234Z,2.40
2022-08-09T20:33:58.174Z,2.30
2022-08-09T20:36:27.485Z,1.90
2022-08-09T20:39:27.977Z,2.30
2022-08-09T20:41:43.822Z,2.10
2022-08-09T20:44:12.963Z,2.20
2022-08-09T20:46:44.744Z,2.50
2022-08-09T20:49:15.722Z,2.40
2022-08-09T20:51:50.405Z,2.50
2022-08-09T20:54:19.888Z,2.60
2022-08-09T20:56:49.690Z,2.70
2022-08-09T20:59:24.960Z,2.60
2022-08-09T21:02:17.451Z,2.90
2022-08-09T21:05:55.076Z,3.00
2022-08-09T21:07:40.283Z,2.70
2022-08-09T21:10:10.919Z,2.50
2022-08-09T21:12:39.472Z,2.80
2022-08-09T21:15:10.788Z,2.50
2022-08-09T21:18:24.831Z,2.60
2022-08-09T21:20:32.554Z,2.60
2022-08-09T21:23:04.325Z,2.70
2022-08-09T21:25:56.229Z,2.40
2022-08-09T21:28:34.913Z,2.60
2022-08-09T21:31:17.241Z,2.30
2022-08-09T21:33:50.237Z,2.70
2022-08-09T21:36:28.165Z,2.60
2022-08-09T21:38:59.471Z,2.50
2022-08-09T21:42:05.232Z,2.80
2022-08-09T21:44:34.800Z,2.60
2022-08-09T21:47:08.996Z,2.40
2022-08-09T21:49:43.193Z,2.70
2022-08-09T21:52:17.663Z,2.70
2022-08-09T21:55:02.876Z,2.40
2022-08-09T21:57:38.894Z,2.70
2022-08-09T22:00:32.330Z,2.70
2022-08-09T22:03:04.901Z,2.80
2022-08-09T22:05:37.668Z,2.60
2022-08-09T22:08:14.583Z,2.70
2022-08-09T22:11:05.083Z,2.80
2022-08-09T22:13:36.858Z,2.90
2022-08-09T22:16:07.703Z,2.70
2022-08-09T22:18:52.813Z,2.70
2022-08-09T22:21:27.508Z,2.60
2022-08-09T22:24:16.620Z,2.60
2022-08-09T22:26:50.971Z,2.90
2022-08-09T22:29:26.866Z,3.20
2022-08-09T22:32:01.122Z,2.80
2022-08-09T22:34:29.088Z,3.10
2022-08-09T22:36:58.500Z,2.80
2022-08-09T22:39:55.448Z,2.40
2022-08-09T22:42:22.296Z,2.60
2022-08-09T22:44:59.875Z,2.70
2022-08-09T22:48:11.353Z,2.60
2022-08-09T22:50:18.730Z,3.00
2022-08-09T22:52:47.011Z,2.80
2022-08-09T22:55:24.049Z,2.60
2022-08-09T22:57:59.832Z,2.80
2022-08-09T23:00:29.884Z,2.60
2022-08-09T23:02:58.467Z,2.50
2022-08-09T23:05:26.499Z,2.50
2022-08-09T23:08:29.139Z,2.90
2022-08-09T23:10:58.089Z,2.80
2022-08-09T23:13:26.440Z,2.50
2022-08-09T23:16:02.836Z,3.20
2022-08-09T23:18:31.940Z,2.70
2022-08-09T23:21:00.029Z,2.90
2022-08-09T23:23:28.764Z,3.10
2022-08-09T23:25:57.075Z,3.50
2022-08-09T23:28:26.063Z,2.90
2022-08-09T23:33:22.342Z,2.90
2022-08-09T23:36:04.679Z,2.70
2022-08-09T23:38:49.136Z,2.80
2022-08-09T23:41:28.851Z,3.00
2022-08-09T23:44:02.400Z,2.90
2022-08-09T23:46:31.727Z,2.80
2022-08-09T23:49:01.930Z,3.10
2022-08-09T23:51:30.751Z,3.10
2022-08-09T23:54:02.497Z,3.10
2022-08-09T23:56:52.884Z,3.50
2022-08-09T23:59:23.609Z,2.80
